Time;durP1;ratioP1;P1;durP2;ratioP2;P2;SDS_P1;SDS_P2;PMS_P1;PMS_P2;Temp;Humidity;BMP_temperature;BMP_pressure;BME280_temperature;BME280_humidity;BME280_pressure;Samples;Min_cycle;Max_cycle;Signal;HPM_P1;HPM_P2
2022/05/11 00:00:56;;;;;;;7.07;3.15;;;15.70;99.90;;;;;;5023205;28;20132;-72
2022/05/11 00:03:21;;;;;;;4.15;3.22;;;15.70;99.90;;;;;;5014607;28;20065;-73
2022/05/11 00:05:47;;;;;;;8.38;3.03;;;15.70;99.90;;;;;;5020233;28;20044;-73
2022/05/11 00:08:13;;;;;;;4.07;3.25;;;15.70;99.90;;;;;;5024992;28;20109;-73
2022/05/11 00:10:39;;;;;;;9.45;3.80;;;15.70;99.90;;;;;;5019087;28;20033;-73
2022/05/11 00:13:05;;;;;;;4.82;2.72;;;15.70;99.90;;;;;;5027725;28;20026;-73
2022/05/11 00:15:30;;;;;;;6.10;3.47;;;15.60;99.90;;;;;;5013594;28;20121;-74
2022/05/11 00:17:57;;;;;;;6.47;3.03;;;15.60;99.90;;;;;;5021746;28;20196;-73
2022/05/11 00:20:23;;;;;;;6.10;3.05;;;15.60;99.90;;;;;;5024074;28;20052;-73
2022/05/11 00:22:53;;;;;;;6.25;2.92;;;15.60;99.90;;;;;;5019061;28;20022;-73
2022/05/11 00:25:19;;;;;;;7.18;3.42;;;15.60;99.90;;;;;;5020803;28;20584;-73
2022/05/11 00:27:45;;;;;;;10.82;3.67;;;15.60;99.90;;;;;;5023071;28;20037;-73
2022/05/11 00:30:11;;;;;;;10.23;3.65;;;15.60;99.90;;;;;;5018047;28;20359;-73
2022/05/11 00:32:37;;;;;;;6.63;3.08;;;15.60;99.90;;;;;;5021831;28;20489;-74
2022/05/11 00:35:04;;;;;;;5.00;2.97;;;15.60;99.90;;;;;;5017746;28;20509;-72
2022/05/11 00:37:30;;;;;;;7.97;2.95;;;15.60;99.90;;;;;;5024255;28;20473;-73
2022/05/11 00:39:57;;;;;;;5.47;2.92;;;15.50;99.90;;;;;;5019989;28;20022;-73
2022/05/11 00:42:23;;;;;;;6.15;2.80;;;15.50;99.90;;;;;;5021753;28;20034;-73
2022/05/11 00:44:49;;;;;;;10.30;2.88;;;15.50;99.90;;;;;;5020205;28;20492;-73
2022/05/11 00:47:24;;;;;;;7.30;2.90;;;15.60;99.90;;;;;;5020656;28;20057;-73
2022/05/11 00:49:59;;;;;;;6.57;2.83;;;15.50;99.90;;;;;;5023822;28;20505;-73
2022/05/11 00:52:59;;;;;;;11.98;3.35;;;15.40;99.90;;;;;;5020921;28;20034;-72
2022/05/11 00:55:26;;;;;;;6.40;2.78;;;15.50;99.90;;;;;;5008719;28;20053;-72
2022/05/11 00:58:03;;;;;;;6.60;3.00;;;15.50;99.90;;;;;;5022546;28;20674;-72
2022/05/11 01:00:29;;;;;;;5.20;3.17;;;15.50;99.90;;;;;;5018114;28;20034;-72
2022/05/11 01:03:03;;;;;;;9.57;3.35;;;15.40;99.90;;;;;;5022491;28;20072;-72
2022/05/11 01:05:29;;;;;;;5.97;2.78;;;15.40;99.90;;;;;;5021261;28;20044;-73
2022/05/11 01:07:56;;;;;;;7.18;3.55;;;15.40;99.90;;;;;;5018892;28;20038;-73
2022/05/11 01:10:24;;;;;;;11.48;3.97;;;15.40;99.90;;;;;;5019399;28;20034;-74
2022/05/11 01:12:53;;;;;;;7.97;3.30;;;15.40;99.90;;;;;;5018419;28;20121;-73
2022/05/11 01:15:19;;;;;;;10.13;3.90;;;15.40;99.90;;;;;;5016119;28;20022;-73
2022/05/11 01:17:46;;;;;;;8.32;3.80;;;15.40;99.90;;;;;;5023545;28;20442;-74
2022/05/11 01:20:17;;;;;;;6.15;3.83;;;15.40;99.90;;;;;;5018135;28;20496;-72
2022/05/11 01:23:04;;;;;;;8.77;4.30;;;15.50;99.90;;;;;;5015751;28;20030;-72
2022/05/11 01:25:30;;;;;;;6.55;3.65;;;15.40;99.90;;;;;;5023607;28;20049;-73
2022/05/11 01:28:11;;;;;;;11.38;4.05;;;15.40;99.90;;;;;;5017557;28;20029;-71
2022/05/11 01:30:42;;;;;;;7.07;3.80;;;15.40;99.90;;;;;;5022991;28;20523;-73
2022/05/11 01:33:10;;;;;;;6.45;3.70;;;15.40;99.90;;;;;;5022254;28;20116;-73
2022/05/11 01:35:59;;;;;;;6.13;3.67;;;15.50;99.90;;;;;;5024065;28;20029;-72
2022/05/11 01:38:39;;;;;;;7.25;3.17;;;15.50;99.90;;;;;;5018881;28;20030;-72
2022/05/11 01:41:06;;;;;;;5.97;2.80;;;15.50;99.90;;;;;;5024229;28;20026;-72
2022/05/11 01:43:34;;;;;;;6.55;2.90;;;15.50;99.90;;;;;;5023179;28;20034;-72
2022/05/11 01:46:00;;;;;;;3.80;2.40;;;15.50;99.90;;;;;;5023319;28;20079;-72
2022/05/11 01:48:26;;;;;;;9.77;2.28;;;15.50;99.90;;;;;;5022460;28;20113;-73
2022/05/11 01:50:52;;;;;;;4.25;1.98;;;15.50;99.90;;;;;;5022912;28;20042;-73
2022/05/11 01:53:19;;;;;;;6.97;2.70;;;15.50;99.90;;;;;;5024377;28;20018;-73
2022/05/11 01:55:44;;;;;;;7.85;2.20;;;15.40;99.90;;;;;;5018704;28;20037;-72
2022/05/11 01:58:11;;;;;;;4.30;2.13;;;15.40;99.90;;;;;;5018584;28;20045;-72
2022/05/11 02:00:39;;;;;;;8.00;2.60;;;15.50;99.90;;;;;;5019322;28;20030;-73
2022/05/11 02:03:05;;;;;;;4.95;1.90;;;15.40;99.90;;;;;;5024374;28;20029;-72
2022/05/11 02:08:15;;;;;;;6.03;1.90;;;15.40;99.90;;;;;;5025676;28;20036;-72
2022/05/11 02:10:41;;;;;;;5.00;1.90;;;15.40;99.90;;;;;;5023593;28;20124;-72
2022/05/11 02:13:07;;;;;;;8.25;2.33;;;15.50;99.90;;;;;;5021770;28;20018;-73
2022/05/11 02:15:32;;;;;;;6.40;1.92;;;15.50;99.90;;;;;;5025242;28;20079;-73
2022/05/11 02:17:58;;;;;;;3.65;1.90;;;15.50;99.90;;;;;;5023009;28;20422;-73
2022/05/11 02:20:24;;;;;;;4.63;1.67;;;15.50;99.90;;;;;;5023694;28;20033;-72
2022/05/11 02:22:50;;;;;;;4.63;1.58;;;15.40;99.90;;;;;;5022960;28;20743;-73
2022/05/11 02:25:17;;;;;;;4.93;1.40;;;15.50;99.90;;;;;;5023934;28;20033;-73
2022/05/11 02:27:44;;;;;;;4.40;2.22;;;15.50;99.90;;;;;;5019093;28;20026;-73
2022/05/11 02:30:20;;;;;;;2.72;1.42;;;15.40;99.90;;;;;;5024576;28;20049;-73
2022/05/11 02:32:46;;;;;;;4.10;1.25;;;15.40;99.90;;;;;;5021392;28;20116;-73
2022/05/11 02:35:12;;;;;;;3.95;1.40;;;15.50;99.90;;;;;;5027000;28;20112;-73
2022/05/11 02:37:38;;;;;;;8.40;1.48;;;15.50;99.90;;;;;;5023169;28;20029;-72
2022/05/11 02:40:05;;;;;;;4.07;1.58;;;15.50;99.90;;;;;;5022499;28;20484;-72
2022/05/11 02:42:31;;;;;;;5.82;1.40;;;15.50;99.90;;;;;;5017390;28;20029;-73
2022/05/11 02:44:56;;;;;;;4.70;1.52;;;15.50;99.90;;;;;;5024249;28;20164;-72
2022/05/11 02:47:22;;;;;;;6.32;1.60;;;15.50;99.90;;;;;;5021110;28;20038;-73
2022/05/11 02:49:47;;;;;;;5.05;1.65;;;15.50;99.90;;;;;;5024391;28;20552;-73
2022/05/11 02:52:14;;;;;;;2.35;1.27;;;15.40;99.90;;;;;;5024193;28;20033;-73
2022/05/11 02:54:41;;;;;;;3.13;0.90;;;15.50;99.90;;;;;;5026068;28;20489;-74
2022/05/11 02:57:07;;;;;;;5.00;1.65;;;15.40;99.90;;;;;;5024218;28;20488;-72
2022/05/11 02:59:32;;;;;;;3.97;1.13;;;15.40;99.90;;;;;;5019635;28;20034;-73
2022/05/11 03:01:58;;;;;;;6.45;0.98;;;15.40;99.90;;;;;;5003891;28;20029;-72
2022/05/11 03:04:25;;;;;;;5.28;1.33;;;15.40;99.90;;;;;;5022775;28;20044;-73
2022/05/11 03:06:50;;;;;;;3.50;1.27;;;15.50;99.90;;;;;;5021867;28;20519;-72
2022/05/11 03:09:17;;;;;;;4.00;1.30;;;15.40;99.90;;;;;;5025801;28;20021;-73
2022/05/11 03:11:44;;;;;;;4.85;1.40;;;15.40;99.90;;;;;;5023682;28;20033;-73
2022/05/11 03:14:10;;;;;;;5.25;1.30;;;15.50;99.90;;;;;;5020891;28;20894;-74
2022/05/11 03:16:36;;;;;;;2.47;1.10;;;15.40;99.90;;;;;;5018673;28;20029;-73
2022/05/11 03:19:03;;;;;;;3.35;1.50;;;15.40;99.90;;;;;;5018721;28;20108;-72
2022/05/11 03:21:29;;;;;;;4.55;1.02;;;15.30;99.90;;;;;;5017899;28;20576;-72
2022/05/11 03:23:55;;;;;;;3.72;1.00;;;15.30;99.90;;;;;;5021289;28;20112;-73
2022/05/11 03:26:21;;;;;;;2.97;1.27;;;15.30;99.90;;;;;;5017895;28;20041;-73
2022/05/11 03:28:47;;;;;;;5.32;1.23;;;15.40;99.90;;;;;;5020216;28;20038;-72
2022/05/11 03:31:13;;;;;;;3.58;1.30;;;15.40;99.90;;;;;;5022748;28;20030;-72
2022/05/11 03:36:22;;;;;;;3.42;1.20;;;15.40;99.90;;;;;;5021004;28;20098;-73
2022/05/11 03:38:48;;;;;;;6.03;1.52;;;15.40;99.90;;;;;;5019937;28;20501;-72
2022/05/11 03:41:13;;;;;;;4.72;1.50;;;15.40;99.90;;;;;;5022859;28;20467;-73
2022/05/11 03:43:39;;;;;;;2.13;1.20;;;15.40;99.90;;;;;;5021043;28;20026;-72
2022/05/11 03:46:05;;;;;;;3.92;1.30;;;15.40;99.90;;;;;;5017452;28;20037;-73
2022/05/11 03:48:30;;;;;;;5.38;1.70;;;15.00;99.90;;;;;;5018928;28;20030;-73
2022/05/11 03:50:57;;;;;;;4.43;1.65;;;16.40;99.90;;;;;;5026458;28;20025;-73
2022/05/11 03:53:22;;;;;;;4.35;1.58;;;15.40;99.90;;;;;;5027951;28;20029;-73
2022/05/11 03:55:48;;;;;;;6.32;1.90;;;15.40;99.90;;;;;;5022650;28;20030;-72
2022/05/11 03:58:14;;;;;;;4.78;1.40;;;15.40;99.90;;;;;;5020667;28;20517;-73
2022/05/11 04:00:41;;;;;;;10.07;1.88;;;15.50;99.90;;;;;;5023953;28;20059;-72
2022/05/11 04:03:07;;;;;;;3.80;1.60;;;15.50;99.90;;;;;;5019924;28;20021;-73
2022/05/11 04:05:33;;;;;;;6.57;1.40;;;15.50;99.90;;;;;;5026977;28;20126;-73
2022/05/11 04:07:58;;;;;;;4.80;1.35;;;15.40;99.90;;;;;;5024192;28;20026;-73
2022/05/11 04:10:25;;;;;;;6.53;1.50;;;15.40;99.90;;;;;;5025594;28;20021;-72
2022/05/11 04:12:51;;;;;;;3.47;1.33;;;15.40;99.90;;;;;;5020851;28;20026;-73
2022/05/11 04:15:16;;;;;;;6.45;1.42;;;15.40;99.90;;;;;;5022999;28;20021;-72
2022/05/11 04:17:43;;;;;;;4.00;2.08;;;15.50;99.90;;;;;;5022518;28;20029;-73
2022/05/11 04:20:11;;;;;;;4.45;2.00;;;15.40;99.90;;;;;;5027112;28;20036;-73
2022/05/11 04:22:37;;;;;;;5.35;1.10;;;15.30;99.90;;;;;;5024472;28;20048;-73
2022/05/11 04:25:03;;;;;;;5.82;0.98;;;15.30;99.90;;;;;;5021673;28;20029;-73
2022/05/11 04:27:29;;;;;;;3.50;1.35;;;15.40;99.90;;;;;;5022706;28;20029;-73
2022/05/11 04:29:55;;;;;;;2.90;0.70;;;15.40;99.90;;;;;;5027201;28;20040;-73
2022/05/11 04:32:21;;;;;;;4.45;1.10;;;15.40;99.90;;;;;;5009547;28;20060;-73
2022/05/11 04:34:46;;;;;;;4.53;1.30;;;15.40;99.90;;;;;;5021584;28;20419;-72
2022/05/11 04:37:14;;;;;;;4.05;1.42;;;15.40;99.90;;;;;;5028676;28;20033;-73
2022/05/11 04:39:39;;;;;;;2.45;0.98;;;15.40;99.90;;;;;;5018604;28;20054;-72
2022/05/11 04:42:06;;;;;;;4.07;1.00;;;15.40;99.90;;;;;;5030454;28;20037;-72
2022/05/11 04:44:32;;;;;;;4.60;1.00;;;15.40;99.90;;;;;;5024024;28;20048;-72
2022/05/11 04:46:58;;;;;;;3.58;1.02;;;15.30;99.90;;;;;;5019286;28;20038;-72
2022/05/11 04:49:23;;;;;;;3.88;0.98;;;15.30;99.90;;;;;;5024269;28;20045;-72
2022/05/11 04:52:18;;;;;;;4.95;1.00;;;15.30;99.90;;;;;;5019497;28;20032;-73
2022/05/11 04:54:48;;;;;;;6.78;1.70;;;15.40;99.90;;;;;;5015547;28;20037;-72
2022/05/11 04:57:14;;;;;;;5.13;1.00;;;15.40;99.90;;;;;;5023937;28;20030;-73
2022/05/11 04:59:40;;;;;;;5.72;1.20;;;15.40;99.90;;;;;;5020105;28;20025;-73
2022/05/11 05:02:06;;;;;;;4.90;2.10;;;15.40;99.90;;;;;;5018603;28;20467;-73
2022/05/11 05:04:33;;;;;;;3.25;1.15;;;15.50;99.90;;;;;;5021632;28;20036;-73
2022/05/11 05:06:59;;;;;;;2.80;1.55;;;15.60;99.90;;;;;;5017762;28;20149;-72
2022/05/11 05:09:25;;;;;;;5.47;1.35;;;15.60;99.90;;;;;;5025138;28;20108;-70
2022/05/11 05:11:51;;;;;;;5.72;1.20;;;15.60;99.60;;;;;;5018587;28;20044;-71
2022/05/11 05:14:17;;;;;;;7.22;1.23;;;15.70;99.40;;;;;;5019132;28;20056;-72
2022/05/11 05:16:43;;;;;;;2.75;1.10;;;15.70;99.60;;;;;;5025953;28;20057;-73
2022/05/11 05:19:09;;;;;;;3.40;1.00;;;15.80;99.50;;;;;;5019090;28;20416;-72
2022/05/11 05:21:35;;;;;;;5.20;1.38;;;15.80;99.40;;;;;;5019839;28;20064;-72
2022/05/11 05:24:00;;;;;;;3.15;0.70;;;15.70;99.40;;;;;;5027030;28;20061;-72
2022/05/11 05:26:26;;;;;;;4.13;0.90;;;15.80;99.20;;;;;;5025901;28;20052;-71
2022/05/11 05:31:37;;;;;;;2.47;0.85;;;15.70;98.90;;;;;;5021268;28;20049;-74
2022/05/11 05:34:04;;;;;;;7.07;1.40;;;15.70;99.00;;;;;;5026809;28;20021;-73
2022/05/11 05:36:32;;;;;;;2.95;1.00;;;15.70;99.30;;;;;;5020359;28;20017;-72
2022/05/11 05:38:58;;;;;;;8.23;2.25;;;15.60;99.60;;;;;;5012318;28;20018;-72
2022/05/11 05:41:26;;;;;;;4.18;1.00;;;15.60;99.70;;;;;;5026050;28;20053;-72
2022/05/11 05:43:52;;;;;;;2.30;1.00;;;15.60;99.20;;;;;;5023860;28;20549;-72
2022/05/11 05:46:18;;;;;;;6.05;1.30;;;15.60;99.60;;;;;;5021615;28;20064;-72
2022/05/11 05:48:44;;;;;;;4.35;1.20;;;15.60;99.40;;;;;;5012218;28;20064;-73
2022/05/11 05:51:12;;;;;;;3.45;0.90;;;15.70;99.50;;;;;;5020460;28;20021;-72
2022/05/11 05:53:40;;;;;;;5.97;1.42;;;15.70;99.80;;;;;;5027754;28;20018;-71
2022/05/11 05:56:06;;;;;;;5.00;1.35;;;15.60;99.30;;;;;;5016778;28;20033;-72
2022/05/11 05:58:31;;;;;;;7.80;1.27;;;15.70;99.30;;;;;;5021404;28;20119;-72
2022/05/11 06:00:57;;;;;;;5.90;1.30;;;15.70;99.20;;;;;;5012024;28;20030;-71
2022/05/11 06:03:25;;;;;;;6.90;1.98;;;15.80;99.10;;;;;;5020690;28;20040;-71
2022/05/11 06:05:51;;;;;;;6.95;1.48;;;15.80;99.20;;;;;;5022131;28;20116;-71
2022/05/11 06:08:17;;;;;;;5.68;1.00;;;15.80;98.90;;;;;;5027885;28;20124;-71
2022/05/11 06:10:45;;;;;;;4.72;1.38;;;15.90;99.20;;;;;;5027163;28;20030;-72
2022/05/11 06:13:13;;;;;;;7.00;1.35;;;16.00;99.40;;;;;;5024372;28;20053;-71
2022/05/11 06:15:39;;;;;;;3.83;1.25;;;16.10;98.70;;;;;;5027429;28;20456;-72
2022/05/11 06:18:06;;;;;;;5.70;1.67;;;16.10;98.50;;;;;;5025533;28;20492;-72
2022/05/11 06:20:32;;;;;;;7.85;1.33;;;16.30;98.60;;;;;;5027051;28;20108;-72
2022/05/11 06:22:58;;;;;;;3.85;1.08;;;16.40;98.80;;;;;;5028207;28;20573;-73
2022/05/11 06:25:23;;;;;;;5.50;1.42;;;16.40;98.70;;;;;;5021201;28;20585;-72
2022/05/11 06:27:49;;;;;;;5.32;1.50;;;16.50;98.90;;;;;;5026610;28;20025;-72
2022/05/11 06:30:16;;;;;;;7.95;1.20;;;16.50;98.90;;;;;;5024148;28;20017;-72
2022/05/11 06:32:41;;;;;;;3.47;1.35;;;16.60;98.50;;;;;;5023710;28;20099;-71
2022/05/11 06:35:07;;;;;;;7.30;1.25;;;16.60;98.80;;;;;;5027118;28;20018;-71
2022/05/11 06:37:33;;;;;;;6.20;1.52;;;16.70;98.50;;;;;;5028241;28;20390;-72
2022/05/11 06:39:58;;;;;;;9.38;1.92;;;16.60;98.00;;;;;;5022313;28;20046;-70
2022/05/11 06:42:24;;;;;;;4.57;1.20;;;16.60;98.50;;;;;;5024819;28;20017;-72
2022/05/11 06:44:50;;;;;;;3.95;1.00;;;16.60;98.30;;;;;;5022944;28;20205;-71
2022/05/11 06:47:20;;;;;;;3.90;1.20;;;16.50;98.30;;;;;;5022036;28;20029;-72
2022/05/11 06:49:45;;;;;;;6.93;1.23;;;16.50;98.60;;;;;;5027077;28;20030;-71
2022/05/11 06:52:11;;;;;;;5.88;1.65;;;16.60;98.80;;;;;;5028898;28;20491;-71
2022/05/11 07:00:06;;;;;;;3.40;0.75;;;16.60;98.00;;;;;;5029672;28;20039;-71
2022/05/11 07:02:34;;;;;;;6.45;1.35;;;16.60;97.90;;;;;;5031113;28;20496;-71
2022/05/11 07:05:00;;;;;;;2.60;1.27;;;16.50;98.00;;;;;;5028656;28;20385;-70
2022/05/11 07:07:26;;;;;;;6.82;1.13;;;16.50;98.00;;;;;;5025359;28;20034;-72
2022/05/11 07:09:51;;;;;;;4.25;1.05;;;16.50;98.30;;;;;;5020468;28;20118;-71
2022/05/11 07:12:17;;;;;;;2.60;0.88;;;16.60;98.20;;;;;;5028816;28;20737;-72
2022/05/11 07:14:43;;;;;;;4.35;1.02;;;16.60;98.40;;;;;;5022468;28;20029;-71
2022/05/11 07:17:09;;;;;;;5.20;0.93;;;16.60;98.20;;;;;;5028767;28;20033;-70
2022/05/11 07:19:36;;;;;;;5.30;1.08;;;16.60;97.90;;;;;;5031182;28;20026;-72
2022/05/11 07:22:02;;;;;;;5.80;1.20;;;16.60;97.30;;;;;;5022296;28;20046;-71
2022/05/11 07:24:28;;;;;;;6.57;0.70;;;16.60;97.60;;;;;;5020951;28;20070;-72
2022/05/11 07:26:54;;;;;;;3.78;1.27;;;16.60;98.30;;;;;;5021791;28;20069;-71
2022/05/11 07:29:20;;;;;;;4.50;1.08;;;16.60;98.10;;;;;;5024753;28;20036;-71
2022/05/11 07:31:46;;;;;;;5.15;0.98;;;16.70;97.70;;;;;;5024358;28;20018;-72
2022/05/11 07:34:12;;;;;;;3.85;1.38;;;16.60;97.40;;;;;;5027902;28;20462;-71
2022/05/11 07:36:39;;;;;;;5.18;0.80;;;16.60;97.80;;;;;;5022064;28;20022;-71
2022/05/11 07:39:05;;;;;;;6.85;0.90;;;16.50;97.60;;;;;;5023451;28;20038;-71
2022/05/11 07:41:31;;;;;;;7.38;1.30;;;16.60;97.80;;;;;;5018289;28;20509;-71
2022/05/11 07:43:57;;;;;;;4.97;0.75;;;16.50;97.70;;;;;;5023391;28;20026;-72
2022/05/11 07:46:23;;;;;;;3.90;0.80;;;16.50;97.70;;;;;;5024515;28;20030;-73
2022/05/11 07:48:49;;;;;;;2.75;0.90;;;16.60;98.70;;;;;;5022730;28;20017;-71
2022/05/11 07:51:16;;;;;;;2.47;0.70;;;16.60;98.00;;;;;;5023920;28;20088;-72
2022/05/11 07:53:41;;;;;;;4.93;1.02;;;16.70;98.00;;;;;;5023444;28;20457;-72
2022/05/11 08:01:36;;;;;;;2.55;0.90;;;17.00;97.60;;;;;;5003503;28;20036;-70
2022/05/11 08:04:01;;;;;;;5.60;1.75;;;17.10;97.60;;;;;;5010918;28;20026;-70
2022/05/11 08:06:27;;;;;;;5.35;1.13;;;17.10;97.20;;;;;;5013918;28;20125;-70
2022/05/11 08:08:52;;;;;;;3.92;0.90;;;17.10;97.50;;;;;;5014493;28;20018;-70
2022/05/11 08:11:18;;;;;;;6.40;0.95;;;17.10;97.50;;;;;;5018752;28;20533;-70
2022/05/11 08:13:43;;;;;;;3.72;1.15;;;17.10;97.90;;;;;;5025009;28;20033;-70
2022/05/11 08:16:09;;;;;;;2.95;0.90;;;17.10;97.20;;;;;;5015829;28;20041;-69
2022/05/11 08:18:35;;;;;;;3.53;1.25;;;17.10;96.20;;;;;;5008041;28;20025;-71
2022/05/11 08:21:01;;;;;;;4.35;1.08;;;17.20;96.30;;;;;;5003109;28;20330;-71
2022/05/11 08:23:28;;;;;;;4.93;1.33;;;17.30;95.50;;;;;;5014679;28;20030;-69
2022/05/11 08:25:57;;;;;;;4.22;0.90;;;17.20;95.70;;;;;;5008649;28;20470;-69
2022/05/11 08:28:24;;;;;;;2.83;1.08;;;17.30;95.60;;;;;;5011011;28;20038;-69
2022/05/11 08:33:39;;;;;;;1.77;0.60;;;17.40;96.60;;;;;;5015456;28;20056;-70
2022/05/11 08:36:13;;;;;;;4.75;0.88;;;17.50;97.00;;;;;;5019757;28;20042;-69
2022/05/11 08:38:42;;;;;;;4.88;1.08;;;17.60;96.50;;;;;;5011364;28;20096;-70
2022/05/11 08:41:11;;;;;;;3.88;1.10;;;17.70;96.40;;;;;;5006153;28;20026;-71
2022/05/11 08:43:37;;;;;;;3.22;1.23;;;17.70;95.90;;;;;;5008833;28;20038;-70
2022/05/11 08:46:43;;;;;;;8.82;1.05;;;17.80;95.70;;;;;;5006575;28;20545;-70
2022/05/11 08:49:38;;;;;;;8.43;1.08;;;17.80;95.60;;;;;;5008594;28;20038;-70
2022/05/11 08:52:10;;;;;;;3.08;1.15;;;17.80;95.40;;;;;;5002233;28;20221;-71
2022/05/11 08:54:55;;;;;;;4.03;1.13;;;17.80;95.50;;;;;;5024958;28;20436;-70
2022/05/11 08:57:26;;;;;;;4.30;1.13;;;17.80;95.80;;;;;;5026181;28;20397;-71
2022/05/11 09:00:13;;;;;;;11.52;0.90;;;18.60;96.50;;;;;;5027077;28;20037;-71
2022/05/11 09:02:50;;;;;;;5.40;1.48;;;17.80;96.00;;;;;;5028067;28;20481;-71
2022/05/11 09:05:23;;;;;;;4.47;1.27;;;17.90;95.90;;;;;;5017336;28;20107;-70
2022/05/11 09:07:52;;;;;;;7.40;1.17;;;17.90;96.50;;;;;;5027056;28;20052;-70
2022/05/11 09:10:33;;;;;;;5.68;1.58;;;17.90;95.90;;;;;;5024417;28;20037;-71
2022/05/11 09:13:02;;;;;;;7.35;1.88;;;17.90;95.80;;;;;;5024598;28;20056;-71
2022/05/11 09:16:00;;;;;;;5.63;1.50;;;17.90;96.00;;;;;;5022404;28;20038;-70
2022/05/11 09:18:31;;;;;;;8.68;1.55;;;17.90;95.80;;;;;;5023908;28;20040;-71
2022/05/11 09:20:59;;;;;;;3.78;1.27;;;18.00;96.00;;;;;;5027612;28;20378;-70
2022/05/11 09:24:01;;;;;;;3.78;1.10;;;18.10;96.60;;;;;;5026852;28;20013;-70
2022/05/11 09:26:34;;;;;;;8.70;2.00;;;18.10;95.80;;;;;;5018318;28;20063;-71
2022/05/11 09:29:16;;;;;;;7.55;1.33;;;18.00;96.20;;;;;;5022867;28;20022;-70
2022/05/11 09:31:44;;;;;;;6.45;1.38;;;18.10;96.10;;;;;;5007383;28;20041;-70
2022/05/11 09:34:14;;;;;;;2.92;1.10;;;18.00;97.10;;;;;;5019942;28;20025;-71
2022/05/11 09:37:15;;;;;;;4.43;1.13;;;18.10;97.00;;;;;;5022281;28;20086;-70
2022/05/11 09:39:54;;;;;;;12.40;2.20;;;18.10;96.80;;;;;;5017998;28;20559;-70
2022/05/11 09:42:29;;;;;;;7.10;1.40;;;18.10;97.10;;;;;;5022715;28;20018;-70
2022/05/11 09:44:54;;;;;;;4.45;1.38;;;18.20;96.80;;;;;;5010779;28;20045;-70
2022/05/11 09:47:35;;;;;;;5.55;1.48;;;18.30;96.90;;;;;;5009782;28;20041;-70
2022/05/11 09:50:22;;;;;;;4.07;1.30;;;18.30;97.20;;;;;;5006845;28;20033;-71
2022/05/11 09:52:48;;;;;;;2.63;1.10;;;18.40;96.10;;;;;;5010222;28;20180;-71
2022/05/11 09:55:26;;;;;;;8.60;1.58;;;18.40;96.10;;;;;;5011269;28;20030;-70
2022/05/11 09:57:56;;;;;;;3.63;1.40;;;18.40;96.40;;;;;;5006345;28;20054;-72
2022/05/11 10:00:35;;;;;;;4.93;1.50;;;18.30;96.20;;;;;;5011257;28;20034;-72
2022/05/11 10:03:06;;;;;;;3.88;1.33;;;18.30;96.60;;;;;;5005663;28;20061;-72
2022/05/11 10:05:45;;;;;;;4.30;1.67;;;18.30;96.00;;;;;;4998110;28;20378;-72
2022/05/11 10:08:31;;;;;;;6.43;1.83;;;18.40;96.70;;;;;;4998690;28;20049;-71
2022/05/11 10:11:22;;;;;;;3.05;1.70;;;18.50;96.60;;;;;;5004394;28;20029;-71
2022/05/11 10:14:02;;;;;;;4.78;1.20;;;18.60;96.60;;;;;;5005359;28;20030;-71
2022/05/11 10:22:44;;;;;;;4.70;1.00;;;18.90;95.50;;;;;;5009306;28;20036;-73
2022/05/11 10:25:16;;;;;;;4.88;1.60;;;19.00;95.40;;;;;;5000382;28;20022;-72
2022/05/11 10:27:50;;;;;;;7.45;1.33;;;19.00;95.60;;;;;;4996778;28;20042;-72
2022/05/11 10:30:52;;;;;;;8.32;1.40;;;19.00;95.20;;;;;;5000682;28;20058;-73
2022/05/11 10:34:04;;;;;;;4.70;1.20;;;19.10;95.10;;;;;;5004654;28;20099;-73
2022/05/11 10:36:29;;;;;;;5.32;1.20;;;19.10;95.40;;;;;;5004883;28;20030;-73
2022/05/11 10:38:59;;;;;;;4.82;1.30;;;19.10;95.30;;;;;;5011240;28;20041;-73
2022/05/11 10:42:07;;;;;;;8.77;2.45;;;19.10;94.60;;;;;;5014203;28;20053;-71
2022/05/11 10:44:38;;;;;;;8.35;2.05;;;19.10;94.90;;;;;;5007615;28;20410;-71
2022/05/11 10:47:17;;;;;;;6.95;1.20;;;19.30;94.30;;;;;;5007813;28;20501;-71
2022/05/11 10:50:04;;;;;;;3.20;1.00;;;19.40;93.90;;;;;;5008600;28;20030;-71
2022/05/11 10:52:44;;;;;;;5.75;1.20;;;19.50;93.90;;;;;;5000578;28;20027;-70
2022/05/11 10:55:48;;;;;;;8.43;1.23;;;19.40;94.00;;;;;;5007954;28;20139;-72
2022/05/11 10:58:42;;;;;;;5.68;0.70;;;19.30;93.30;;;;;;5020882;28;20440;-72
2022/05/11 11:01:16;;;;;;;4.65;1.27;;;19.30;93.40;;;;;;5005080;28;20041;-71
2022/05/11 11:03:50;;;;;;;5.70;1.33;;;19.30;94.10;;;;;;5022313;28;20038;-72
2022/05/11 11:09:53;;;;;;;5.60;1.42;;;19.30;93.50;;;;;;5019322;28;20164;-72
2022/05/11 11:12:49;;;;;;;6.50;1.20;;;19.20;93.70;;;;;;5000436;28;20057;-71
2022/05/11 11:15:18;;;;;;;4.65;0.95;;;19.20;93.60;;;;;;5005920;28;20033;-71
2022/05/11 11:17:46;;;;;;;3.20;1.00;;;19.10;93.70;;;;;;5002263;28;20506;-72
2022/05/11 11:20:15;;;;;;;7.15;1.52;;;19.40;94.20;;;;;;5005259;28;20038;-72
2022/05/11 11:23:00;;;;;;;9.57;1.38;;;19.40;93.50;;;;;;5003260;28;20029;-71
2022/05/11 11:25:26;;;;;;;3.47;0.98;;;19.50;93.40;;;;;;5004844;28;20026;-72
2022/05/11 11:28:14;;;;;;;5.25;1.90;;;19.40;93.50;;;;;;5000531;28;20038;-71
2022/05/11 11:31:02;;;;;;;6.53;1.25;;;19.40;93.40;;;;;;5003527;28;20466;-71
2022/05/11 11:33:39;;;;;;;8.88;1.35;;;19.40;94.40;;;;;;5009782;28;20038;-72
2022/05/11 11:36:27;;;;;;;4.57;1.40;;;19.60;93.70;;;;;;5003405;28;20034;-72
2022/05/11 11:38:58;;;;;;;4.32;1.38;;;19.60;92.80;;;;;;5008222;28;20022;-71
2022/05/11 11:42:19;;;;;;;7.25;1.38;;;19.50;92.30;;;;;;5004694;28;20589;-71
2022/05/11 11:44:48;;;;;;;7.43;1.65;;;19.60;92.80;;;;;;5005487;28;20037;-71
2022/05/11 11:47:36;;;;;;;6.15;1.42;;;19.60;93.00;;;;;;5018726;28;20505;-71
2022/05/11 11:50:04;;;;;;;6.05;1.58;;;19.80;93.40;;;;;;5006360;28;20021;-71
2022/05/11 11:52:38;;;;;;;4.00;1.20;;;19.80;92.50;;;;;;5004572;28;20038;-72
2022/05/11 11:55:25;;;;;;;8.68;1.73;;;19.80;92.70;;;;;;5009978;28;20022;-71
2022/05/11 11:57:56;;;;;;;7.18;1.63;;;19.80;92.60;;;;;;5002812;28;20054;-72
2022/05/11 12:00:46;;;;;;;4.13;1.70;;;19.90;92.40;;;;;;4996122;28;20541;-72
2022/05/11 12:03:23;;;;;;;4.28;1.70;;;20.00;92.70;;;;;;5008128;28;20471;-72
2022/05/11 12:05:53;;;;;;;4.22;1.75;;;20.00;91.90;;;;;;5003366;28;20041;-71
2022/05/11 12:16:53;;;;;;;8.63;1.65;;;20.20;91.60;;;;;;5008417;28;20037;-72
2022/05/11 12:19:19;;;;;;;6.18;1.73;;;20.40;92.10;;;;;;5002861;28;20113;-72
2022/05/11 12:22:03;;;;;;;6.85;2.03;;;20.50;91.60;;;;;;5005138;28;20030;-72
2022/05/11 12:24:36;;;;;;;7.18;2.33;;;20.60;91.70;;;;;;5007370;28;20110;-71
2022/05/11 12:27:12;;;;;;;5.07;2.10;;;20.80;91.90;;;;;;5007722;28;20034;-72
2022/05/11 12:29:59;;;;;;;6.47;2.53;;;20.80;91.60;;;;;;5016974;28;20076;-72
2022/05/11 12:32:29;;;;;;;10.80;3.13;;;21.00;91.40;;;;;;5004418;28;20109;-71
2022/05/11 12:34:57;;;;;;;6.60;2.28;;;21.10;90.60;;;;;;5003350;28;20032;-71
2022/05/11 12:37:25;;;;;;;11.48;3.38;;;21.20;90.70;;;;;;5001044;28;20038;-71
2022/05/11 12:39:58;;;;;;;17.00;2.60;;;21.20;91.20;;;;;;5002674;28;20382;-71
2022/05/11 12:42:54;;;;;;;7.72;2.78;;;21.20;91.60;;;;;;5007425;28;20455;-72
2022/05/11 12:45:25;;;;;;;10.60;2.53;;;21.40;90.90;;;;;;4996524;28;20049;-72
2022/05/11 12:47:56;;;;;;;9.85;2.90;;;21.30;90.90;;;;;;4999001;28;20428;-72
2022/05/11 12:50:25;;;;;;;9.75;2.83;;;21.30;91.50;;;;;;4991751;28;20734;-71
2022/05/11 12:53:17;;;;;;;14.20;2.65;;;21.30;91.20;;;;;;5008828;28;20038;-72
2022/05/11 12:55:52;;;;;;;5.88;2.65;;;21.50;90.90;;;;;;5004113;28;20034;-71
2022/05/11 12:58:23;;;;;;;9.90;3.55;;;21.40;91.00;;;;;;5003464;28;20049;-72
2022/05/11 13:00:57;;;;;;;8.88;3.25;;;21.40;91.50;;;;;;5005508;28;20030;-72
2022/05/11 13:03:38;;;;;;;7.95;2.47;;;21.60;91.60;;;;;;4994942;28;20526;-72
2022/05/11 13:06:26;;;;;;;9.85;3.22;;;21.70;91.40;;;;;;5005770;28;20034;-73
2022/05/11 13:08:54;;;;;;;9.07;3.42;;;22.00;91.30;;;;;;5027961;28;20110;-71
2022/05/11 13:11:23;;;;;;;15.32;3.25;;;22.00;90.90;;;;;;5030788;28;20383;-72
2022/05/11 13:13:54;;;;;;;9.90;3.10;;;22.10;91.00;;;;;;5030028;28;20025;-71
2022/05/11 13:16:25;;;;;;;11.20;3.15;;;22.10;90.30;;;;;;5032775;28;20025;-72
2022/05/11 13:19:02;;;;;;;11.52;3.17;;;22.20;91.90;;;;;;5032721;28;20434;-72
2022/05/11 13:21:35;;;;;;;6.10;3.00;;;22.20;91.50;;;;;;5027075;28;20383;-73
2022/05/11 13:24:01;;;;;;;13.77;3.03;;;22.30;91.00;;;;;;5029088;28;20491;-72
2022/05/11 13:26:55;;;;;;;8.48;3.88;;;22.40;91.20;;;;;;5027524;28;20040;-72
2022/05/11 13:29:24;;;;;;;8.80;2.85;;;22.40;91.20;;;;;;5015658;28;20052;-73
2022/05/11 13:32:08;;;;;;;13.80;3.60;;;22.50;91.40;;;;;;5008406;28;20018;-73
2022/05/11 13:34:39;;;;;;;13.70;3.45;;;22.70;90.80;;;;;;5011359;28;20117;-72
2022/05/11 13:37:24;;;;;;;11.13;3.83;;;22.80;90.70;;;;;;5010195;28;20355;-71
2022/05/11 13:39:50;;;;;;;9.77;3.10;;;22.80;90.40;;;;;;5011792;28;20041;-72
2022/05/11 13:42:29;;;;;;;10.95;3.30;;;22.80;90.90;;;;;;5000251;28;20034;-71
2022/05/11 13:45:00;;;;;;;13.70;3.10;;;22.80;91.00;;;;;;4992343;28;20049;-71